createdAt,value
2022-11-30T00:00:49.584Z,99360.80
2022-11-30T00:03:47.062Z,99355.00
2022-11-30T00:06:44.540Z,99348.80
2022-11-30T00:09:41.969Z,99352.60
2022-11-30T00:12:42.526Z,99349.40
2022-11-30T00:15:39.982Z,99347.60
2022-11-30T00:18:37.451Z,99341.00
2022-11-30T00:21:34.910Z,99347.00
2022-11-30T00:24:32.365Z,99346.60
2022-11-30T00:27:29.840Z,99344.60
2022-11-30T00:30:27.373Z,99346.60
2022-11-30T00:33:24.869Z,99355.00
2022-11-30T00:36:22.780Z,99352.40
2022-11-30T00:39:20.241Z,99356.40
2022-11-30T00:42:17.699Z,99356.00
2022-11-30T00:45:15.171Z,99360.40
2022-11-30T00:48:12.656Z,99358.00
2022-11-30T00:51:10.161Z,99359.80
2022-11-30T00:54:07.614Z,99362.00
2022-11-30T00:57:05.176Z,99364.80
2022-11-30T01:00:02.636Z,99362.20
2022-11-30T01:03:00.481Z,99369.20
2022-11-30T01:05:57.971Z,99379.80
2022-11-30T01:08:55.476Z,99383.20
2022-11-30T01:11:52.947Z,99385.80
2022-11-30T01:14:50.411Z,99375.60
2022-11-30T01:17:47.854Z,99386.60
2022-11-30T01:20:45.330Z,99380.00
2022-11-30T01:23:42.775Z,99377.40
2022-11-30T01:26:40.218Z,99382.20
2022-11-30T01:29:37.660Z,99375.60
2022-11-30T01:32:35.101Z,99377.20
2022-11-30T01:35:32.550Z,99376.40
2022-11-30T01:38:30.003Z,99380.40
2022-11-30T01:41:27.444Z,99379.40
2022-11-30T01:44:28.173Z,99371.40
2022-11-30T01:47:25.628Z,99369.00
2022-11-30T01:50:23.153Z,99367.20
2022-11-30T01:53:20.673Z,99365.00
2022-11-30T01:56:19.233Z,99378.40
2022-11-30T01:59:16.699Z,99379.80
2022-11-30T02:02:14.213Z,99375.40
2022-11-30T02:05:11.698Z,99378.60
2022-11-30T02:08:09.300Z,99382.60
2022-11-30T02:11:07.053Z,99379.80
2022-11-30T02:14:04.537Z,99371.40
2022-11-30T02:17:01.990Z,99367.60
2022-11-30T02:19:59.490Z,99367.00
2022-11-30T02:22:56.947Z,99371.80
2022-11-30T02:25:54.392Z,99371.40
2022-11-30T02:28:51.824Z,99373.80
2022-11-30T02:31:49.298Z,99378.00
2022-11-30T02:34:47.198Z,99375.00
2022-11-30T02:37:44.956Z,99372.60
2022-11-30T02:40:42.411Z,99377.60
2022-11-30T02:43:40.017Z,99381.00
2022-11-30T02:46:37.511Z,99381.40
2022-11-30T02:49:34.989Z,99381.60
2022-11-30T02:52:32.491Z,99381.60
2022-11-30T02:55:30.360Z,99381.80
2022-11-30T02:58:27.798Z,99386.80
2022-11-30T03:01:25.404Z,99382.40
2022-11-30T03:04:22.896Z,99375.40
2022-11-30T03:07:20.399Z,99376.40
2022-11-30T03:10:17.923Z,99374.80
2022-11-30T03:13:15.391Z,99372.40
2022-11-30T03:16:12.930Z,99378.80
2022-11-30T03:19:10.434Z,99378.80
2022-11-30T03:22:07.907Z,99379.80
2022-11-30T03:25:05.356Z,99380.40
2022-11-30T03:28:02.858Z,99383.60
2022-11-30T03:31:00.401Z,99382.20
2022-11-30T03:33:57.904Z,99378.80
2022-11-30T03:36:55.356Z,99378.80
2022-11-30T03:39:57.940Z,99381.00
2022-11-30T03:42:55.935Z,99393.20
2022-11-30T03:45:53.421Z,99395.80
2022-11-30T03:48:50.862Z,99396.80
2022-11-30T03:51:48.355Z,99396.60
2022-11-30T03:54:46.029Z,99397.60
2022-11-30T03:57:43.763Z,99397.20
2022-11-30T04:00:41.224Z,99396.80
2022-11-30T04:03:38.673Z,99403.00
2022-11-30T04:06:36.130Z,99409.60
2022-11-30T04:09:33.603Z,99414.80
2022-11-30T04:12:31.469Z,99414.00
2022-11-30T04:15:28.927Z,99416.60
2022-11-30T04:18:26.425Z,99413.00
2022-11-30T04:21:23.907Z,99416.60
2022-11-30T04:24:21.363Z,99413.60
2022-11-30T04:27:18.827Z,99416.00
2022-11-30T04:30:16.309Z,99413.00
2022-11-30T04:33:13.788Z,99415.40
2022-11-30T04:36:11.246Z,99418.20
2022-11-30T04:39:08.697Z,99418.20
2022-11-30T04:42:06.147Z,99415.00
2022-11-30T04:45:03.594Z,99422.00
2022-11-30T04:48:01.048Z,99418.40
2022-11-30T04:50:58.573Z,99418.60
2022-11-30T04:53:56.050Z,99414.80
2022-11-30T04:56:53.534Z,99416.00
2022-11-30T04:59:50.991Z,99415.00
2022-11-30T05:02:52.749Z,99416.60
2022-11-30T05:05:50.832Z,99418.80
2022-11-30T05:08:48.260Z,99420.80
2022-11-30T05:11:47.211Z,99421.40
2022-11-30T05:14:44.878Z,99422.60
2022-11-30T05:17:42.634Z,99427.60
2022-11-30T05:20:40.105Z,99420.60
2022-11-30T05:23:37.569Z,99424.60
2022-11-30T05:26:35.030Z,99427.20
2022-11-30T05:29:32.507Z,99431.60
2022-11-30T05:32:29.984Z,99437.00
2022-11-30T05:35:27.446Z,99431.40
2022-11-30T05:38:24.913Z,99429.80
2022-11-30T05:41:22.528Z,99440.40
2022-11-30T05:44:20.012Z,99436.40
2022-11-30T05:47:17.495Z,99438.60
2022-11-30T05:50:14.995Z,99445.20
2022-11-30T05:53:12.456Z,99444.40
2022-11-30T05:56:09.934Z,99449.40
2022-11-30T05:59:07.392Z,99452.60
2022-11-30T06:02:04.916Z,99452.60
2022-11-30T06:05:02.434Z,99454.80
2022-11-30T06:08:00.439Z,99453.80
2022-11-30T06:10:57.966Z,99455.60
2022-11-30T06:13:55.446Z,99457.00
2022-11-30T06:16:52.951Z,99457.60
2022-11-30T06:19:50.436Z,99457.40
2022-11-30T06:22:48.227Z,99461.40
2022-11-30T06:25:45.694Z,99465.20
2022-11-30T06:28:47.916Z,99469.00
2022-11-30T06:31:46.250Z,99471.00
2022-11-30T06:34:43.753Z,99471.60
2022-11-30T06:37:41.220Z,99479.80
2022-11-30T06:40:38.683Z,99478.20
2022-11-30T06:43:36.160Z,99477.00
2022-11-30T06:46:34.022Z,99473.40
2022-11-30T06:49:31.629Z,99479.40
2022-11-30T06:52:29.050Z,99472.60
2022-11-30T06:55:26.512Z,99475.00
2022-11-30T06:58:23.946Z,99477.80
2022-11-30T07:01:21.448Z,99479.00
2022-11-30T07:04:19.024Z,99482.40
2022-11-30T07:07:16.506Z,99482.00
2022-11-30T07:10:19.782Z,99480.80
2022-11-30T07:13:17.661Z,99479.40
2022-11-30T07:16:15.179Z,99480.80
2022-11-30T07:19:12.720Z,99484.20
2022-11-30T07:22:10.168Z,99487.80
2022-11-30T07:25:25.448Z,99490.60
2022-11-30T07:28:22.893Z,99496.00
2022-11-30T07:31:20.480Z,99499.00
2022-11-30T07:34:18.097Z,99505.40
2022-11-30T07:37:15.542Z,99502.00
2022-11-30T07:40:13.030Z,99506.00
2022-11-30T07:43:10.554Z,99507.40
2022-11-30T07:46:08.072Z,99503.80
2022-11-30T07:49:05.815Z,99501.60
2022-11-30T07:52:04.741Z,99504.20
2022-11-30T07:55:02.198Z,99505.60
2022-11-30T07:57:59.775Z,99503.00
2022-11-30T08:00:57.346Z,99509.80
2022-11-30T08:03:54.890Z,99512.40
2022-11-30T08:06:52.367Z,99506.40
2022-11-30T08:09:49.832Z,99511.00
2022-11-30T08:12:47.296Z,99502.60
2022-11-30T08:15:45.232Z,99506.80
2022-11-30T08:18:42.667Z,99503.40
2022-11-30T08:21:40.156Z,99498.60
2022-11-30T08:24:37.609Z,99499.80
2022-11-30T08:27:35.081Z,99503.20
2022-11-30T08:30:32.975Z,99514.20
2022-11-30T08:33:30.941Z,99510.40
2022-11-30T08:36:28.550Z,99512.80
2022-11-30T08:39:28.168Z,99515.60
2022-11-30T08:42:25.669Z,99515.20
2022-11-30T08:45:23.193Z,99518.40
2022-11-30T08:48:20.663Z,99518.60
2022-11-30T08:51:18.292Z,99518.20
2022-11-30T08:54:15.762Z,99518.80
2022-11-30T08:57:13.469Z,99524.00
2022-11-30T09:00:10.928Z,99521.60
2022-11-30T09:03:08.492Z,99517.20
2022-11-30T09:06:06.253Z,99521.40
2022-11-30T09:09:03.738Z,99516.80
2022-11-30T09:12:01.236Z,99522.00
2022-11-30T09:14:59.148Z,99533.20
2022-11-30T09:17:56.892Z,99536.80
2022-11-30T09:20:55.067Z,99542.20
2022-11-30T09:23:52.611Z,99548.40
2022-11-30T09:26:50.077Z,99545.40
2022-11-30T09:29:47.525Z,99535.60
2022-11-30T09:32:45.011Z,99538.00
2022-11-30T09:35:42.514Z,99539.00
2022-11-30T09:38:39.983Z,99543.40
2022-11-30T09:41:37.877Z,99539.60
2022-11-30T09:44:35.355Z,99541.00
2022-11-30T09:47:33.120Z,99541.80
2022-11-30T09:50:30.614Z,99532.80
2022-11-30T09:53:29.984Z,99534.40
2022-11-30T09:56:27.630Z,99535.40
2022-11-30T09:59:26.635Z,99529.40
2022-11-30T10:02:24.263Z,99526.60
2022-11-30T10:05:22.162Z,99518.20
2022-11-30T10:08:19.629Z,99519.00
2022-11-30T10:11:18.109Z,99509.80
2022-11-30T10:14:15.880Z,99506.40
2022-11-30T10:17:13.349Z,99506.60
2022-11-30T10:20:10.795Z,99503.80
2022-11-30T10:23:08.267Z,99509.40
2022-11-30T10:26:05.736Z,99507.20
2022-11-30T10:29:03.208Z,99506.80
2022-11-30T10:32:00.658Z,99508.60
2022-11-30T10:34:58.104Z,99505.80
2022-11-30T10:37:55.589Z,99502.40
2022-11-30T10:40:53.069Z,99504.60
2022-11-30T10:43:50.566Z,99505.00
2022-11-30T10:46:48.067Z,99501.80
2022-11-30T10:49:45.587Z,99496.40
2022-11-30T10:52:43.051Z,99495.60
2022-11-30T10:55:40.506Z,99503.00
2022-11-30T10:58:38.455Z,99501.00
2022-11-30T11:01:35.974Z,99501.00
2022-11-30T11:04:33.577Z,99505.00
2022-11-30T11:07:31.122Z,99504.80
2022-11-30T11:10:28.646Z,99505.60
2022-11-30T11:13:26.076Z,99508.20
2022-11-30T11:16:23.566Z,99502.60
2022-11-30T11:19:21.061Z,99502.00
2022-11-30T11:22:18.540Z,99496.80
2022-11-30T11:25:16.013Z,99496.00
2022-11-30T11:28:13.791Z,99489.60
2022-11-30T11:34:51.484Z,99471.60
2022-11-30T11:37:49.179Z,99467.00
2022-11-30T11:40:46.696Z,99458.60
2022-11-30T11:43:44.160Z,99460.80
2022-11-30T11:46:41.680Z,99457.80
2022-11-30T11:49:39.170Z,99459.80
2022-11-30T11:52:36.632Z,99458.20
2022-11-30T11:55:34.076Z,99456.80
2022-11-30T11:58:31.593Z,99454.00
2022-11-30T12:01:39.759Z,99455.20
2022-11-30T12:04:38.549Z,99458.80
2022-11-30T12:07:36.078Z,99462.20
2022-11-30T12:13:51.208Z,99467.40
2022-11-30T12:16:48.667Z,99462.40
2022-11-30T12:19:46.427Z,99461.00
2022-11-30T12:22:44.134Z,99455.60
2022-11-30T12:25:41.584Z,99458.60
2022-11-30T12:28:39.066Z,99466.60
2022-11-30T12:31:36.561Z,99469.60
2022-11-30T12:34:34.051Z,99471.80
2022-11-30T12:37:31.645Z,99469.00
2022-11-30T12:40:29.164Z,99469.00
2022-11-30T12:43:26.619Z,99469.00
2022-11-30T12:46:24.322Z,99469.40
2022-11-30T12:49:22.194Z,99474.60
2022-11-30T12:52:19.653Z,99471.80
2022-11-30T12:55:17.112Z,99470.40
2022-11-30T12:58:14.600Z,99461.60
2022-11-30T13:01:12.534Z,99459.20
2022-11-30T13:04:10.102Z,99455.00
2022-11-30T13:07:08.917Z,99442.40
2022-11-30T13:10:06.582Z,99451.20
2022-11-30T13:13:04.674Z,99455.60
2022-11-30T13:16:02.197Z,99451.00
2022-11-30T13:18:59.680Z,99446.20
2022-11-30T13:21:57.179Z,99452.40
2022-11-30T13:24:54.675Z,99449.20
2022-11-30T13:27:56.962Z,99444.40
2022-11-30T13:30:55.756Z,99440.60
2022-11-30T13:33:55.646Z,99443.40
2022-11-30T13:36:53.222Z,99447.60
2022-11-30T13:39:50.674Z,99448.40
2022-11-30T13:42:51.775Z,99453.40
2022-11-30T13:45:49.493Z,99446.40
2022-11-30T13:48:46.973Z,99447.00
2022-11-30T13:51:44.488Z,99446.60
2022-11-30T13:54:43.352Z,99451.80
2022-11-30T13:57:41.239Z,99453.80
2022-11-30T14:00:38.754Z,99454.40
2022-11-30T14:03:38.558Z,99454.80
2022-11-30T14:06:36.023Z,99454.40
2022-11-30T14:09:33.480Z,99454.40
2022-11-30T14:12:31.154Z,99456.80
2022-11-30T14:15:31.665Z,99451.20
2022-11-30T14:18:29.176Z,99456.40
2022-11-30T14:21:26.635Z,99456.40
2022-11-30T14:24:24.089Z,99449.60
2022-11-30T14:27:21.536Z,99442.60
2022-11-30T14:30:19.027Z,99444.00
2022-11-30T14:33:19.539Z,99440.40
2022-11-30T14:36:17.445Z,99444.40
2022-11-30T14:39:14.933Z,99448.00
2022-11-30T14:42:13.497Z,99445.40
2022-11-30T14:45:10.952Z,99452.40
2022-11-30T14:48:08.438Z,99451.60
2022-11-30T14:51:05.977Z,99448.60
2022-11-30T14:54:03.456Z,99442.80
2022-11-30T14:57:00.908Z,99441.40
2022-11-30T14:59:58.382Z,99440.60
2022-11-30T15:02:55.841Z,99440.00
2022-11-30T15:05:53.314Z,99439.00
2022-11-30T15:08:51.211Z,99441.00
2022-11-30T15:11:48.679Z,99439.80
2022-11-30T15:14:46.135Z,99434.40
2022-11-30T15:17:43.600Z,99441.40
2022-11-30T15:20:41.048Z,99438.40
2022-11-30T15:23:38.530Z,99431.20
2022-11-30T15:26:36.029Z,99437.00
2022-11-30T15:29:33.650Z,99443.00
2022-11-30T15:32:31.249Z,99438.00
2022-11-30T15:35:49.968Z,99445.80
2022-11-30T15:38:46.500Z,99439.60
2022-11-30T15:41:44.260Z,99435.40
2022-11-30T15:44:41.777Z,99440.80
2022-11-30T15:47:39.226Z,99447.20
2022-11-30T15:50:37.289Z,99447.40
2022-11-30T15:53:34.893Z,99451.60
2022-11-30T15:56:32.424Z,99454.00
2022-11-30T15:59:34.478Z,99460.40
2022-11-30T16:02:32.042Z,99460.80
2022-11-30T16:05:29.561Z,99462.40
2022-11-30T16:08:27.414Z,99461.40
2022-11-30T16:11:24.936Z,99464.40
2022-11-30T16:14:22.780Z,99468.80
2022-11-30T16:17:20.279Z,99468.00
2022-11-30T16:20:21.168Z,99468.00
2022-11-30T16:23:18.687Z,99465.60
2022-11-30T16:26:36.026Z,99465.80
2022-11-30T16:29:34.716Z,99463.40
2022-11-30T16:32:32.537Z,99457.00
2022-11-30T16:35:30.409Z,99457.80
2022-11-30T16:38:28.452Z,99467.20
2022-11-30T16:41:27.130Z,99464.80
2022-11-30T16:44:25.720Z,99458.40
2022-11-30T16:47:26.638Z,99454.60
2022-11-30T16:50:24.618Z,99459.60
2022-11-30T16:53:27.386Z,99460.60
2022-11-30T16:56:28.074Z,99467.60
2022-11-30T16:59:26.251Z,99465.80
2022-11-30T17:02:24.818Z,99470.80
2022-11-30T17:05:24.675Z,99464.80
2022-11-30T17:08:22.615Z,99467.80
2022-11-30T17:11:20.161Z,99467.60
2022-11-30T17:14:18.608Z,99472.60
2022-11-30T17:17:17.183Z,99471.60
2022-11-30T17:20:15.440Z,99467.20
2022-11-30T17:23:13.461Z,99464.20
2022-11-30T17:26:11.262Z,99468.20
2022-11-30T17:29:09.501Z,99467.00
2022-11-30T17:32:09.795Z,99469.00
2022-11-30T17:35:08.272Z,99467.20
2022-11-30T17:38:06.305Z,99471.40
2022-11-30T17:41:04.477Z,99477.80
2022-11-30T17:44:02.551Z,99474.80
2022-11-30T17:47:04.527Z,99473.00
2022-11-30T17:50:02.534Z,99474.20
2022-11-30T17:53:00.778Z,99471.80
2022-11-30T17:55:58.760Z,99467.40
2022-11-30T17:58:56.703Z,99474.20
2022-11-30T18:01:55.370Z,99470.00
2022-11-30T18:04:54.975Z,99480.20
2022-11-30T18:07:52.931Z,99478.00
2022-11-30T18:10:51.466Z,99483.40
2022-11-30T18:13:50.463Z,99480.80
2022-11-30T18:16:48.444Z,99476.40
2022-11-30T18:19:46.912Z,99478.80
2022-11-30T18:22:45.813Z,99477.60
2022-11-30T18:25:44.464Z,99484.80
2022-11-30T18:28:42.532Z,99487.20
2022-11-30T18:31:41.924Z,99484.00
2022-11-30T18:34:41.239Z,99488.40
2022-11-30T18:37:39.255Z,99487.40
2022-11-30T18:40:37.419Z,99484.00
2022-11-30T18:43:37.138Z,99486.00
2022-11-30T18:46:36.119Z,99489.40
2022-11-30T18:49:36.356Z,99491.40
2022-11-30T18:52:34.527Z,99495.60
2022-11-30T18:55:36.582Z,99492.80
2022-11-30T18:58:35.867Z,99495.00
2022-11-30T19:01:34.370Z,99497.60
2022-11-30T19:04:34.043Z,99502.80
2022-11-30T19:07:34.858Z,99499.40
2022-11-30T19:10:33.914Z,99498.20
2022-11-30T19:13:33.024Z,99501.20
2022-11-30T19:16:36.731Z,99503.20
2022-11-30T19:19:35.701Z,99504.60
2022-11-30T19:22:34.676Z,99505.80
2022-11-30T19:25:36.583Z,99503.60
2022-11-30T19:28:35.935Z,99510.60
2022-11-30T19:31:34.971Z,99505.00
2022-11-30T19:34:33.761Z,99506.20
2022-11-30T19:37:33.760Z,99510.20
2022-11-30T19:40:32.527Z,99510.40
2022-11-30T19:43:31.237Z,99509.00
2022-11-30T19:46:30.013Z,99503.60
2022-11-30T19:49:28.331Z,99505.20
2022-11-30T19:52:27.146Z,99510.00
2022-11-30T19:55:27.802Z,99507.00
2022-11-30T19:58:26.540Z,99502.20
2022-11-30T20:01:25.796Z,99506.80
2022-11-30T20:04:24.696Z,99503.40
2022-11-30T20:07:23.909Z,99504.20
2022-11-30T20:10:23.224Z,99506.40
2022-11-30T20:13:21.694Z,99501.60
2022-11-30T20:16:20.341Z,99505.60
2022-11-30T20:19:21.971Z,99504.00
2022-11-30T20:22:20.984Z,99503.80
2022-11-30T20:25:21.115Z,99506.80
2022-11-30T20:28:26.143Z,99500.80
2022-11-30T20:31:26.362Z,99493.80
2022-11-30T20:34:28.555Z,99496.00
2022-11-30T20:37:32.235Z,99503.00
2022-11-30T20:40:32.546Z,99501.60
2022-11-30T20:43:34.423Z,99498.60
2022-11-30T20:46:34.316Z,99497.60
2022-11-30T20:49:33.338Z,99495.80
2022-11-30T20:52:34.271Z,99498.20
2022-11-30T20:55:34.435Z,99497.60
2022-11-30T20:58:33.087Z,99502.40
2022-11-30T21:01:32.307Z,99497.00
2022-11-30T21:04:30.938Z,99499.80
2022-11-30T21:07:29.402Z,99497.80
2022-11-30T21:10:29.564Z,99501.80
2022-11-30T21:13:27.087Z,99506.60
2022-11-30T21:16:28.202Z,99512.80
2022-11-30T21:19:27.253Z,99504.00
2022-11-30T21:22:24.709Z,99503.60
2022-11-30T21:25:22.202Z,99503.60
2022-11-30T21:28:21.235Z,99503.20
2022-11-30T21:31:19.124Z,99505.20
2022-11-30T21:34:16.797Z,99501.00
2022-11-30T21:37:14.261Z,99501.40
2022-11-30T21:40:12.328Z,99503.20
2022-11-30T21:43:09.844Z,99501.80
2022-11-30T21:46:07.331Z,99503.20
2022-11-30T21:49:04.855Z,99502.40
2022-11-30T21:52:02.333Z,99508.20
2022-11-30T21:54:59.864Z,99509.20
2022-11-30T21:57:57.329Z,99518.80
2022-11-30T22:00:54.786Z,99523.40
2022-11-30T22:03:54.007Z,99517.00
2022-11-30T22:06:51.562Z,99517.60
2022-11-30T22:09:49.115Z,99523.00
2022-11-30T22:12:46.759Z,99519.20
2022-11-30T22:15:44.242Z,99519.60
2022-11-30T22:18:41.763Z,99514.60
2022-11-30T22:21:39.227Z,99513.20
2022-11-30T22:24:36.731Z,99513.20
2022-11-30T22:27:34.212Z,99516.40
2022-11-30T22:30:31.708Z,99513.40
2022-11-30T22:33:29.166Z,99513.00
2022-11-30T22:36:26.637Z,99510.40
2022-11-30T22:39:24.113Z,99513.80
2022-11-30T22:42:21.595Z,99506.40
2022-11-30T22:45:19.054Z,99508.40
2022-11-30T22:48:16.540Z,99497.60
2022-11-30T22:51:14.064Z,99500.60
2022-11-30T22:54:11.511Z,99500.00
2022-11-30T22:57:08.967Z,99489.40
2022-11-30T23:00:06.403Z,99487.20
2022-11-30T23:03:03.984Z,99491.20
2022-11-30T23:06:01.812Z,99500.20
2022-11-30T23:09:00.851Z,99492.40
2022-11-30T23:11:58.315Z,99490.80
2022-11-30T23:14:55.768Z,99489.00
2022-11-30T23:17:53.228Z,99486.60
2022-11-30T23:20:50.677Z,99483.80
2022-11-30T23:23:48.133Z,99481.60
2022-11-30T23:26:46.164Z,99478.60
2022-11-30T23:29:43.622Z,99478.00
2022-11-30T23:32:41.085Z,99480.40
2022-11-30T23:35:38.557Z,99488.00
2022-11-30T23:38:36.037Z,99488.40
2022-11-30T23:41:33.490Z,99475.40
2022-11-30T23:44:30.947Z,99471.60
2022-11-30T23:47:28.416Z,99475.20
2022-11-30T23:50:25.858Z,99467.80
2022-11-30T23:53:23.325Z,99470.60
2022-11-30T23:56:20.810Z,99466.60
2022-11-30T23:59:18.285Z,99476.20
